createdAt,value
2019-02-19T00:02:22.713Z,11.93
2019-02-19T00:04:51.101Z,7.70
2019-02-19T00:07:19.493Z,12.20
2019-02-19T00:09:47.877Z,12.97
2019-02-19T00:12:16.281Z,18.80
2019-02-19T00:14:44.662Z,9.57
2019-02-19T00:17:13.048Z,14.10
2019-02-19T00:19:41.445Z,10.27
2019-02-19T00:22:09.833Z,11.10
2019-02-19T00:24:38.223Z,11.33
2019-02-19T00:27:06.612Z,13.00
2019-02-19T00:29:35.021Z,10.63
2019-02-19T00:32:03.407Z,14.47
2019-02-19T00:34:31.785Z,10.63
2019-02-19T00:37:00.188Z,11.40
2019-02-19T00:39:28.572Z,13.67
2019-02-19T00:41:56.972Z,11.10
2019-02-19T00:44:25.380Z,11.70
2019-02-19T00:46:53.760Z,14.93
2019-02-19T00:49:22.140Z,11.80
2019-02-19T00:51:50.528Z,13.33
2019-02-19T00:54:18.922Z,18.30
2019-02-19T00:56:47.308Z,12.17
2019-02-19T00:59:15.688Z,14.70
2019-02-19T01:01:44.076Z,14.43
2019-02-19T01:04:12.469Z,13.17
2019-02-19T01:06:40.857Z,17.87
2019-02-19T01:09:10.089Z,15.17
2019-02-19T01:11:38.548Z,15.97
2019-02-19T01:14:06.938Z,16.87
2019-02-19T01:16:35.330Z,16.87
2019-02-19T01:19:03.717Z,17.47
2019-02-19T01:21:32.109Z,16.70
2019-02-19T01:24:00.501Z,15.20
2019-02-19T01:26:28.905Z,16.90
2019-02-19T01:28:58.354Z,15.60
2019-02-19T01:31:27.272Z,19.10
2019-02-19T01:33:55.660Z,21.27
2019-02-19T01:36:24.048Z,18.13
2019-02-19T01:38:52.440Z,22.27
2019-02-19T01:41:20.825Z,17.40
2019-02-19T01:43:49.225Z,23.87
2019-02-19T01:46:17.612Z,21.10
2019-02-19T01:48:46.012Z,24.13
2019-02-19T01:51:14.408Z,21.20
2019-02-19T01:53:42.797Z,20.27
2019-02-19T01:56:11.200Z,25.80
2019-02-19T01:58:39.587Z,26.47
2019-02-19T02:01:07.989Z,21.63
2019-02-19T02:03:36.376Z,24.17
2019-02-19T02:06:04.850Z,23.70
2019-02-19T02:08:33.248Z,22.97
2019-02-19T02:11:01.642Z,27.43
2019-02-19T02:13:30.036Z,27.33
2019-02-19T02:15:58.428Z,26.40
2019-02-19T02:18:26.845Z,29.20
2019-02-19T02:20:55.237Z,29.63
2019-02-19T02:23:23.620Z,30.23
2019-02-19T02:25:52.036Z,31.27
2019-02-19T02:28:20.755Z,39.90
2019-02-19T02:30:49.137Z,35.23
2019-02-19T02:33:17.528Z,38.70
2019-02-19T02:35:45.931Z,38.07
2019-02-19T02:38:14.394Z,40.17
2019-02-19T02:40:42.789Z,35.07
2019-02-19T02:43:11.256Z,36.33
2019-02-19T02:45:39.661Z,33.90
2019-02-19T02:48:08.049Z,32.10
2019-02-19T02:50:36.445Z,37.27
2019-02-19T02:53:04.918Z,41.40
2019-02-19T02:55:33.304Z,43.07
2019-02-19T02:58:01.705Z,38.17
2019-02-19T03:00:30.094Z,45.50
2019-02-19T03:02:58.497Z,45.87
2019-02-19T03:05:26.908Z,45.57
2019-02-19T03:07:56.934Z,49.00
2019-02-19T03:10:25.335Z,43.37
2019-02-19T03:12:53.800Z,46.37
2019-02-19T03:15:22.266Z,48.60
2019-02-19T03:17:50.903Z,52.53
2019-02-19T03:20:19.424Z,48.20
2019-02-19T03:22:47.817Z,48.80
2019-02-19T03:25:16.217Z,41.23
2019-02-19T03:27:44.607Z,44.20
2019-02-19T03:30:13.081Z,50.33
2019-02-19T03:32:41.479Z,47.23
2019-02-19T03:35:09.869Z,49.83
2019-02-19T03:37:38.347Z,51.13
2019-02-19T03:40:08.966Z,49.90
2019-02-19T03:42:37.428Z,52.27
2019-02-19T03:45:09.226Z,56.87
2019-02-19T03:47:37.604Z,60.07
2019-02-19T03:50:06.869Z,55.57
2019-02-19T03:52:35.260Z,53.83
2019-02-19T03:55:03.805Z,61.77
2019-02-19T03:57:33.145Z,56.43
2019-02-19T04:00:01.543Z,62.30
2019-02-19T04:02:29.955Z,63.73
2019-02-19T04:04:58.332Z,65.00
2019-02-19T04:07:26.721Z,62.90
2019-02-19T04:09:55.133Z,64.70
2019-02-19T04:12:24.600Z,65.17
2019-02-19T04:14:53.015Z,62.17
2019-02-19T04:17:21.392Z,66.73
2019-02-19T04:19:49.784Z,67.27
2019-02-19T04:22:18.177Z,55.97
2019-02-19T04:24:46.581Z,66.87
2019-02-19T04:27:14.969Z,62.00
2019-02-19T04:29:43.352Z,57.53
2019-02-19T04:32:11.748Z,58.90
2019-02-19T04:34:40.144Z,50.60
2019-02-19T04:37:08.540Z,54.73
2019-02-19T04:39:36.946Z,51.53
2019-02-19T04:42:05.341Z,55.00
2019-02-19T04:44:33.726Z,56.17
2019-02-19T04:47:02.200Z,52.37
2019-02-19T04:49:30.577Z,56.57
2019-02-19T04:51:59.211Z,58.50
2019-02-19T04:54:27.606Z,57.73
2019-02-19T04:56:55.993Z,55.30
2019-02-19T04:59:24.383Z,54.17
2019-02-19T05:01:52.804Z,52.90
2019-02-19T05:04:21.192Z,54.77
2019-02-19T05:06:49.610Z,52.77
2019-02-19T05:09:18.002Z,48.97
2019-02-19T05:11:46.389Z,54.73
2019-02-19T05:14:14.784Z,54.13
2019-02-19T05:16:44.282Z,53.60
2019-02-19T05:19:12.685Z,55.67
2019-02-19T05:21:41.067Z,55.60
2019-02-19T05:24:09.477Z,55.13
2019-02-19T05:26:37.865Z,50.07
2019-02-19T05:29:06.265Z,53.07
2019-02-19T05:31:34.652Z,46.63
2019-02-19T05:34:03.091Z,54.27
2019-02-19T05:36:31.482Z,46.90
2019-02-19T05:38:59.885Z,53.97
2019-02-19T05:41:28.268Z,56.30
2019-02-19T05:43:56.673Z,47.63
2019-02-19T05:46:25.062Z,57.98
2019-02-19T05:48:53.469Z,51.27
2019-02-19T05:51:21.853Z,49.13
2019-02-19T05:53:50.245Z,48.47
2019-02-19T05:56:18.632Z,49.70
2019-02-19T05:58:47.023Z,53.40
2019-02-19T06:01:15.416Z,52.17
2019-02-19T06:03:44.066Z,49.50
2019-02-19T06:06:12.452Z,49.20
2019-02-19T06:08:40.883Z,55.63
2019-02-19T06:11:09.354Z,52.20
2019-02-19T06:13:37.853Z,49.93
2019-02-19T06:16:06.253Z,45.57
2019-02-19T06:18:34.650Z,47.27
2019-02-19T06:21:03.147Z,48.70
2019-02-19T06:23:31.528Z,44.40
2019-02-19T06:25:59.918Z,47.60
2019-02-19T06:28:28.310Z,49.33
2019-02-19T06:30:56.713Z,47.17
2019-02-19T06:33:25.105Z,48.90
2019-02-19T06:35:53.497Z,45.73
2019-02-19T06:38:21.885Z,47.90
2019-02-19T06:40:50.291Z,49.77
2019-02-19T06:43:18.712Z,45.87
2019-02-19T06:45:47.073Z,55.97
2019-02-19T06:48:15.470Z,44.40
2019-02-19T06:50:43.869Z,50.97
2019-02-19T06:53:12.341Z,49.77
2019-02-19T06:55:40.733Z,50.37
2019-02-19T06:58:09.160Z,47.57
2019-02-19T07:00:37.543Z,46.70
2019-02-19T07:03:13.664Z,49.27
2019-02-19T07:05:42.149Z,46.97
2019-02-19T07:08:10.530Z,47.80
2019-02-19T07:10:38.925Z,42.53
2019-02-19T07:13:07.336Z,46.83
2019-02-19T07:15:35.795Z,45.33
2019-02-19T07:18:04.192Z,46.60
2019-02-19T07:20:32.598Z,41.23
2019-02-19T07:23:01.001Z,39.87
2019-02-19T07:25:29.461Z,44.97
2019-02-19T07:27:57.868Z,40.77
2019-02-19T07:30:26.257Z,37.47
2019-02-19T07:32:54.645Z,37.67
2019-02-19T07:35:23.045Z,40.93
2019-02-19T07:37:51.436Z,35.90
2019-02-19T07:40:19.906Z,40.37
2019-02-19T07:42:48.299Z,39.20
2019-02-19T07:45:16.687Z,38.40
2019-02-19T07:47:45.085Z,40.90
2019-02-19T07:50:13.473Z,31.07
2019-02-19T07:52:41.860Z,46.37
2019-02-19T07:55:11.127Z,40.00
2019-02-19T07:57:39.597Z,39.27
2019-02-19T08:00:13.554Z,37.87
2019-02-19T08:02:41.961Z,37.57
2019-02-19T08:05:10.361Z,34.23
2019-02-19T08:07:38.762Z,33.13
2019-02-19T08:10:12.501Z,38.90
2019-02-19T08:12:40.960Z,29.13
2019-02-19T08:15:11.836Z,33.13
2019-02-19T08:17:40.450Z,33.57
2019-02-19T08:20:15.959Z,32.03
2019-02-19T08:22:40.205Z,29.10
2019-02-19T08:25:08.766Z,30.03
2019-02-19T08:27:37.169Z,29.80
2019-02-19T08:30:08.776Z,29.37
2019-02-19T08:32:37.191Z,28.17
2019-02-19T08:35:07.254Z,30.50
2019-02-19T08:37:35.729Z,32.50
2019-02-19T08:40:05.460Z,29.37
2019-02-19T08:42:33.842Z,31.63
2019-02-19T08:45:02.245Z,30.33
2019-02-19T08:47:30.874Z,32.43
2019-02-19T08:49:59.262Z,29.37
2019-02-19T08:52:27.667Z,28.87
2019-02-19T08:54:56.065Z,30.40
2019-02-19T08:57:24.461Z,27.33
2019-02-19T08:59:52.865Z,35.53
2019-02-19T09:02:21.269Z,23.87
2019-02-19T09:04:49.729Z,25.30
2019-02-19T09:07:18.132Z,23.97
2019-02-19T09:09:46.568Z,31.10
2019-02-19T09:12:15.215Z,31.13
2019-02-19T09:14:43.625Z,28.00
2019-02-19T09:17:12.028Z,26.33
2019-02-19T09:19:40.492Z,26.93
2019-02-19T09:22:08.897Z,23.30
2019-02-19T09:24:37.284Z,23.00
2019-02-19T09:27:05.674Z,21.67
2019-02-19T09:29:34.074Z,28.70
2019-02-19T09:32:02.460Z,25.47
2019-02-19T09:34:30.860Z,27.97
2019-02-19T09:36:59.256Z,27.10
2019-02-19T09:39:27.641Z,22.53
2019-02-19T09:41:56.362Z,30.40
2019-02-19T09:44:24.765Z,26.77
2019-02-19T09:46:53.173Z,23.67
2019-02-19T09:49:21.569Z,25.03
2019-02-19T09:51:49.961Z,25.40
2019-02-19T09:54:18.365Z,19.27
2019-02-19T09:56:46.763Z,17.03
2019-02-19T09:59:15.167Z,19.63
2019-02-19T10:01:43.585Z,19.13
2019-02-19T10:04:11.983Z,18.50
2019-02-19T10:06:40.379Z,12.80
2019-02-19T10:09:10.418Z,15.67
2019-02-19T10:11:38.803Z,16.37
2019-02-19T10:14:07.202Z,13.33
2019-02-19T10:16:41.355Z,17.67
2019-02-19T10:19:05.701Z,13.83
2019-02-19T10:21:34.093Z,13.00
2019-02-19T10:24:02.493Z,17.07
2019-02-19T10:26:30.970Z,18.47
2019-02-19T10:28:59.432Z,18.87
2019-02-19T10:31:27.897Z,17.13
2019-02-19T10:33:56.310Z,14.77
2019-02-19T10:36:24.708Z,15.80
2019-02-19T10:38:53.113Z,18.90
2019-02-19T10:41:21.521Z,16.43
2019-02-19T10:43:49.912Z,18.50
2019-02-19T10:46:18.314Z,16.50
2019-02-19T10:48:46.726Z,18.10
2019-02-19T10:51:15.125Z,17.73
2019-02-19T10:53:43.517Z,16.90
2019-02-19T10:56:11.937Z,15.13
2019-02-19T10:58:40.326Z,15.80
2019-02-19T11:01:08.727Z,19.37
2019-02-19T11:03:37.137Z,14.60
2019-02-19T11:06:05.604Z,20.80
2019-02-19T11:08:34.072Z,16.33
2019-02-19T11:11:02.473Z,18.13
2019-02-19T11:13:30.875Z,19.43
2019-02-19T11:15:59.265Z,14.53
2019-02-19T11:18:28.686Z,14.20
2019-02-19T11:20:57.953Z,21.20
2019-02-19T11:23:26.345Z,12.07
2019-02-19T11:25:54.778Z,13.13
2019-02-19T11:28:23.152Z,13.53
2019-02-19T11:30:51.545Z,14.90
2019-02-19T11:33:19.964Z,15.67
2019-02-19T11:35:48.360Z,14.13
2019-02-19T11:38:16.762Z,13.63
2019-02-19T11:40:45.153Z,14.77
2019-02-19T11:43:13.536Z,12.83
2019-02-19T11:45:41.929Z,12.30
2019-02-19T11:48:10.328Z,12.20
2019-02-19T11:50:38.729Z,10.80
2019-02-19T11:53:07.129Z,14.07
2019-02-19T11:55:35.524Z,12.53
2019-02-19T11:58:04.078Z,14.00
2019-02-19T12:00:37.299Z,13.03
2019-02-19T12:03:05.684Z,14.87
2019-02-19T12:05:34.151Z,14.27
2019-02-19T12:08:02.556Z,13.43
2019-02-19T12:10:33.535Z,12.40
2019-02-19T12:13:01.921Z,9.67
2019-02-19T12:15:35.180Z,10.50
2019-02-19T12:18:00.704Z,16.97
2019-02-19T12:20:29.176Z,8.50
2019-02-19T12:22:57.575Z,10.63
2019-02-19T12:25:25.987Z,14.87
2019-02-19T12:27:54.381Z,15.60
2019-02-19T12:30:22.768Z,11.63
2019-02-19T12:32:51.222Z,12.10
2019-02-19T12:35:19.641Z,8.60
2019-02-19T12:37:48.018Z,9.67
2019-02-19T12:40:16.421Z,13.40
2019-02-19T12:42:44.820Z,8.10
2019-02-19T12:45:15.448Z,7.93
2019-02-19T12:47:43.866Z,9.90
2019-02-19T12:50:15.382Z,8.40
2019-02-19T12:52:44.621Z,11.03
2019-02-19T12:55:13.102Z,14.10
2019-02-19T12:57:41.507Z,9.90
2019-02-19T13:00:15.674Z,9.57
2019-02-19T13:02:44.285Z,16.53
2019-02-19T13:05:15.576Z,12.50
2019-02-19T13:07:43.966Z,13.33
2019-02-19T13:10:13.243Z,11.53
2019-02-19T13:12:41.624Z,10.43
2019-02-19T13:15:15.982Z,9.70
2019-02-19T13:17:44.390Z,12.10
2019-02-19T13:20:15.123Z,12.17
2019-02-19T13:22:43.509Z,11.97
2019-02-19T13:25:12.772Z,9.93
2019-02-19T13:27:41.237Z,9.40
2019-02-19T13:30:12.701Z,8.23
2019-02-19T13:32:41.105Z,10.03
2019-02-19T13:35:12.424Z,7.07
2019-02-19T13:37:40.839Z,10.67
2019-02-19T13:40:12.634Z,8.87
2019-02-19T13:42:41.037Z,9.60
2019-02-19T13:45:12.681Z,10.90
2019-02-19T13:47:41.074Z,7.87
2019-02-19T13:50:12.948Z,7.30
2019-02-19T13:52:43.029Z,10.67
2019-02-19T13:55:13.057Z,11.17
2019-02-19T13:57:41.453Z,8.73
2019-02-19T14:00:12.249Z,10.63
2019-02-19T14:02:40.657Z,12.70
2019-02-19T14:05:09.129Z,8.23
2019-02-19T14:07:37.531Z,8.83
2019-02-19T14:10:09.027Z,9.40
2019-02-19T14:12:37.432Z,9.77
2019-02-19T14:15:10.370Z,8.20
2019-02-19T14:17:38.764Z,9.37
2019-02-19T14:20:09.564Z,13.00
2019-02-19T14:22:58.001Z,9.43
2019-02-19T14:25:30.993Z,10.03
2019-02-19T14:28:01.019Z,12.13
2019-02-19T14:30:43.325Z,11.40
2019-02-19T14:33:13.442Z,9.90
2019-02-19T14:35:49.686Z,14.43
2019-02-19T14:38:25.901Z,13.70
2019-02-19T14:40:58.629Z,11.57
2019-02-19T14:43:43.897Z,9.63
2019-02-19T14:46:25.948Z,12.37
2019-02-19T14:48:55.980Z,14.77
2019-02-19T14:51:31.502Z,8.97
2019-02-19T14:54:01.546Z,13.10
2019-02-19T14:56:37.473Z,13.17
2019-02-19T14:59:07.518Z,13.43
2019-02-19T15:01:37.789Z,11.90
2019-02-19T15:04:24.356Z,14.23
2019-02-19T15:07:13.489Z,10.30
2019-02-19T15:09:59.339Z,13.93
2019-02-19T15:12:46.044Z,12.63
2019-02-19T15:15:31.361Z,13.33
2019-02-19T15:18:03.975Z,9.60
2019-02-19T15:20:43.021Z,10.07
2019-02-19T15:23:21.809Z,10.93
2019-02-19T15:26:07.256Z,10.70
2019-02-19T15:28:37.288Z,11.40
2019-02-19T15:31:23.609Z,12.67
2019-02-19T15:34:05.674Z,9.77
2019-02-19T15:36:52.226Z,14.53
2019-02-19T15:39:38.953Z,10.80
2019-02-19T15:42:25.595Z,13.63
2019-02-19T15:44:55.637Z,7.07
2019-02-19T15:47:31.420Z,13.03
2019-02-19T15:50:07.297Z,11.33
2019-02-19T15:52:37.326Z,8.53
2019-02-19T15:55:11.133Z,10.50
2019-02-19T15:57:46.880Z,10.00
2019-02-19T16:00:17.578Z,9.80
2019-02-19T16:02:47.628Z,10.60
2019-02-19T16:05:23.324Z,10.97
2019-02-19T16:08:09.857Z,7.83
2019-02-19T16:10:42.837Z,11.10
2019-02-19T16:13:12.882Z,9.30
2019-02-19T16:15:42.921Z,12.20
2019-02-19T16:18:21.771Z,13.73
2019-02-19T16:20:57.666Z,10.07
2019-02-19T16:23:46.057Z,13.10
2019-02-19T16:26:22.184Z,11.43
2019-02-19T16:28:52.211Z,9.23
2019-02-19T16:31:38.772Z,11.70
2019-02-19T16:34:25.337Z,13.60
2019-02-19T16:37:01.363Z,13.03
2019-02-19T16:39:43.452Z,11.43
2019-02-19T16:42:29.780Z,12.40
2019-02-19T16:45:02.817Z,11.50
2019-02-19T16:47:35.913Z,9.40
2019-02-19T16:50:14.413Z,12.33
2019-02-19T16:52:50.586Z,13.80
2019-02-19T16:55:35.974Z,12.93
2019-02-19T16:58:06.081Z,9.50
2019-02-19T17:00:36.205Z,12.50
2019-02-19T17:03:15.883Z,8.60
2019-02-19T17:05:45.909Z,9.57
2019-02-19T17:08:15.937Z,9.63
2019-02-19T17:10:45.982Z,12.47
2019-02-19T17:13:16.011Z,12.40
2019-02-19T17:15:46.038Z,11.37
2019-02-19T17:18:31.065Z,13.23
2019-02-19T17:21:17.570Z,13.53
2019-02-19T17:24:03.858Z,9.90
2019-02-19T17:26:42.957Z,11.30
2019-02-19T17:29:13.175Z,11.43
2019-02-19T17:32:01.304Z,12.13
2019-02-19T17:34:37.346Z,14.07
2019-02-19T17:37:13.111Z,13.17
2019-02-19T17:39:43.145Z,12.17
2019-02-19T17:42:13.185Z,17.57
2019-02-19T17:44:43.213Z,13.17
2019-02-19T17:47:22.224Z,26.93
2019-02-19T17:50:03.986Z,26.67
2019-02-19T17:52:48.760Z,29.77
2019-02-19T17:55:24.761Z,31.80
2019-02-19T17:58:13.105Z,26.93
2019-02-19T18:00:55.079Z,24.83
2019-02-19T18:03:33.761Z,23.13
2019-02-19T18:06:12.723Z,20.37
2019-02-19T18:08:42.755Z,18.53
2019-02-19T18:11:15.452Z,14.47
2019-02-19T18:14:01.821Z,10.83
2019-02-19T18:16:50.197Z,10.00
2019-02-19T18:19:18.594Z,12.60
2019-02-19T18:21:46.981Z,14.27
2019-02-19T18:24:15.451Z,16.17
2019-02-19T18:26:44.802Z,17.33
2019-02-19T18:29:13.825Z,16.37
2019-02-19T18:31:42.214Z,13.70
2019-02-19T18:34:10.610Z,13.07
2019-02-19T18:36:39.009Z,14.73
2019-02-19T18:39:07.471Z,14.77
2019-02-19T18:41:37.516Z,13.83
2019-02-19T18:44:05.909Z,17.37
2019-02-19T18:46:34.378Z,14.70
2019-02-19T18:49:02.766Z,20.30
2019-02-19T18:51:31.156Z,16.07
2019-02-19T18:54:00.048Z,16.73
2019-02-19T18:56:28.497Z,15.43
2019-02-19T18:58:56.900Z,11.77
2019-02-19T19:01:25.286Z,14.67
2019-02-19T19:03:53.729Z,18.50
2019-02-19T19:06:22.123Z,12.23
2019-02-19T19:08:50.512Z,13.80
2019-02-19T19:11:18.917Z,15.93
2019-02-19T19:13:47.325Z,12.50
2019-02-19T19:16:15.735Z,13.97
2019-02-19T19:18:44.137Z,13.83
2019-02-19T19:21:12.517Z,14.97
2019-02-19T19:23:40.925Z,14.27
2019-02-19T19:26:09.341Z,12.53
2019-02-19T19:28:37.734Z,15.37
2019-02-19T19:31:06.132Z,14.83
2019-02-19T19:33:34.514Z,14.60
2019-02-19T19:36:02.918Z,15.57
2019-02-19T19:38:31.328Z,13.50
2019-02-19T19:40:59.724Z,17.27
2019-02-19T19:43:28.226Z,18.87
2019-02-19T19:45:56.886Z,18.90
2019-02-19T19:48:25.316Z,18.97
2019-02-19T19:50:53.735Z,16.47
2019-02-19T19:53:22.173Z,15.70
2019-02-19T19:55:50.574Z,15.57
2019-02-19T19:58:18.973Z,17.07
2019-02-19T20:00:47.363Z,15.17
2019-02-19T20:03:15.758Z,20.53
2019-02-19T20:05:44.182Z,14.37
2019-02-19T20:08:12.764Z,15.77
2019-02-19T20:10:41.179Z,12.23
2019-02-19T20:13:09.606Z,18.37
2019-02-19T20:15:37.970Z,15.93
2019-02-19T20:18:06.356Z,12.90
2019-02-19T20:20:34.749Z,18.20
2019-02-19T20:23:03.137Z,21.63
2019-02-19T20:25:31.524Z,22.70
2019-02-19T20:27:59.918Z,15.10
2019-02-19T20:30:29.523Z,15.57
2019-02-19T20:32:58.041Z,13.50
2019-02-19T20:35:26.900Z,16.57
2019-02-19T20:37:55.400Z,15.23
2019-02-19T20:40:23.891Z,16.87
2019-02-19T20:42:52.272Z,14.47
2019-02-19T20:45:20.682Z,17.90
2019-02-19T20:47:49.073Z,16.80
2019-02-19T20:50:17.534Z,14.40
2019-02-19T20:52:45.929Z,18.50
2019-02-19T20:55:14.342Z,14.73
2019-02-19T20:57:42.740Z,17.00
2019-02-19T21:00:16.863Z,18.47
2019-02-19T21:02:46.205Z,21.67
2019-02-19T21:05:14.589Z,18.00
2019-02-19T21:07:42.968Z,18.57
2019-02-19T21:10:16.685Z,24.77
2019-02-19T21:12:45.076Z,19.40
2019-02-19T21:15:14.419Z,20.93
2019-02-19T21:17:42.800Z,17.20
2019-02-19T21:20:13.120Z,19.13
2019-02-19T21:23:00.855Z,17.70
2019-02-19T21:25:31.201Z,19.03
2019-02-19T21:27:59.357Z,15.80
2019-02-19T21:30:27.744Z,19.40
2019-02-19T21:32:56.138Z,18.20
2019-02-19T21:35:24.528Z,19.60
2019-02-19T21:37:52.921Z,20.00
2019-02-19T21:40:21.312Z,14.57
2019-02-19T21:42:49.718Z,20.97
2019-02-19T21:45:18.101Z,25.67
2019-02-19T21:47:46.490Z,19.13
2019-02-19T21:50:15.669Z,22.20
2019-02-19T21:52:44.332Z,20.77
2019-02-19T21:55:13.893Z,19.97
2019-02-19T21:57:42.288Z,15.67
2019-02-19T22:00:18.068Z,15.63
2019-02-19T22:02:46.457Z,21.47
2019-02-19T22:05:14.843Z,17.30
2019-02-19T22:07:43.225Z,19.83
2019-02-19T22:10:14.230Z,19.93
2019-02-19T22:12:42.608Z,17.73
2019-02-19T22:15:13.641Z,19.50
2019-02-19T22:17:42.102Z,19.57
2019-02-19T22:20:20.369Z,19.27
2019-02-19T22:22:48.760Z,18.37
2019-02-19T22:25:17.137Z,20.93
2019-02-19T22:27:45.528Z,21.57
2019-02-19T22:30:14.153Z,25.27
2019-02-19T22:32:42.541Z,21.67
2019-02-19T22:35:10.930Z,18.17
2019-02-19T22:37:39.340Z,18.43
2019-02-19T22:40:09.093Z,20.40
2019-02-19T22:42:37.485Z,22.70
2019-02-19T22:45:08.625Z,17.33
2019-02-19T22:47:37.270Z,20.97
2019-02-19T22:50:09.053Z,22.67
2019-02-19T22:52:37.457Z,20.07
2019-02-19T22:55:10.814Z,23.23
2019-02-19T22:57:39.197Z,16.50
2019-02-19T23:00:39.378Z,19.77
2019-02-19T23:03:07.940Z,19.00
2019-02-19T23:05:36.336Z,20.20
2019-02-19T23:08:04.781Z,21.40
2019-02-19T23:10:33.177Z,19.07
2019-02-19T23:13:01.560Z,28.87
2019-02-19T23:15:29.940Z,23.27
2019-02-19T23:17:58.341Z,25.17
2019-02-19T23:20:26.733Z,20.13
2019-02-19T23:22:55.123Z,26.43
2019-02-19T23:25:23.506Z,24.90
2019-02-19T23:27:51.900Z,23.87
2019-02-19T23:30:20.280Z,23.67
2019-02-19T23:32:48.674Z,20.47
2019-02-19T23:35:35.525Z,25.07
2019-02-19T23:38:03.912Z,21.73
2019-02-19T23:40:32.285Z,21.27
2019-02-19T23:43:00.690Z,17.80
2019-02-19T23:45:29.069Z,20.27
2019-02-19T23:47:57.528Z,17.73
2019-02-19T23:50:25.916Z,20.83
2019-02-19T23:52:54.338Z,18.43
2019-02-19T23:55:23.990Z,25.57
2019-02-19T23:57:52.384Z,19.67
